Time;durP1;ratioP1;P1;durP2;ratioP2;P2;SDS_P1;SDS_P2;PMS_P1;PMS_P2;Temp;Humidity;BMP_temperature;BMP_pressure;BME280_temperature;BME280_humidity;BME280_pressure;Samples;Min_cycle;Max_cycle;Signal;HPM_P1;HPM_P2
2023/06/13 00:00:37;;;;;;;;;;;;;;;21.05;72.59;96461.73;625956;226;62906;-61
2023/06/13 00:03:05;;;;;;;;;;;;;;;21.05;72.60;96467.07;625943;226;66678;-61
2023/06/13 00:05:33;;;;;;;;;;;;;;;21.04;72.62;96463.61;625985;226;66824;-61
2023/06/13 00:08:00;;;;;;;;;;;;;;;21.04;72.61;96466.28;625931;226;65176;-61
2023/06/13 00:10:28;;;;;;;;;;;;;;;21.04;72.64;96465.49;626010;226;67187;-60
2023/06/13 00:12:55;;;;;;;;;;;;;;;21.05;72.62;96464.41;625620;226;66820;-61
2023/06/13 00:15:23;;;;;;;;;;;;;;;21.04;72.62;96460.15;624763;227;65035;-60
2023/06/13 00:17:50;;;;;;;;;;;;;;;21.04;72.64;96452.13;624817;227;66926;-61
2023/06/13 00:20:18;;;;;;;;;;;;;;;21.04;72.61;96452.92;624827;227;64779;-61
2023/06/13 00:22:45;;;;;;;;;;;;;;;21.04;72.64;96460.15;624843;227;62988;-61
2023/06/13 00:25:13;;;;;;;;;;;;;;;21.04;72.59;96454.81;624847;227;66894;-61
2023/06/13 00:27:40;;;;;;;;;;;;;;;21.03;72.61;96451.34;624826;227;66828;-60
2023/06/13 00:30:08;;;;;;;;;;;;;;;21.04;72.60;96447.58;624798;227;62714;-59
2023/06/13 00:32:36;;;;;;;;;;;;;;;21.04;72.58;96449.47;624768;227;66906;-59
2023/06/13 00:35:03;;;;;;;;;;;;;;;21.04;72.58;96449.47;624862;227;65407;-59
2023/06/13 00:37:34;;;;;;;;;;;;;;;21.04;72.61;96442.23;624819;227;62855;-59
2023/06/13 00:40:00;;;;;;;;;;;;;;;21.03;72.58;96448.67;624737;226;66714;-59
2023/06/13 00:42:28;;;;;;;;;;;;;;;21.04;72.60;96444.91;624797;227;67186;-59
2023/06/13 00:44:57;;;;;;;;;;;;;;;21.03;72.58;96440.66;624790;227;62770;-60
2023/06/13 00:47:26;;;;;;;;;;;;;;;21.04;72.59;96446.80;624432;226;64537;-59
2023/06/13 00:49:54;;;;;;;;;;;;;;;21.02;72.59;96447.06;624789;227;66959;-60
2023/06/13 00:52:22;;;;;;;;;;;;;;;21.03;72.58;96448.67;624794;227;65772;-60
2023/06/13 00:54:49;;;;;;;;;;;;;;;21.03;72.60;96448.67;624763;227;67037;-60
2023/06/13 00:57:17;;;;;;;;;;;;;;;21.04;72.60;96449.47;624759;227;65145;-60
2023/06/13 00:59:46;;;;;;;;;;;;;;;21.04;72.58;96444.13;624807;227;64974;-60
2023/06/13 01:02:20;;;;;;;;;;;;;;;21.03;72.58;96443.33;624846;227;64933;-59
2023/06/13 01:04:47;;;;;;;;;;;;;;;21.04;72.58;96441.45;624661;226;66852;-60
2023/06/13 01:07:14;;;;;;;;;;;;;;;21.03;72.60;96445.18;624736;226;65920;-59
2023/06/13 01:09:42;;;;;;;;;;;;;;;21.04;72.59;96438.78;624785;227;65699;-59
2023/06/13 01:12:11;;;;;;;;;;;;;;;21.03;72.59;96434.50;624770;227;64836;-59
2023/06/13 01:14:50;;;;;;;;;;;;;;;21.03;72.60;96440.66;624812;226;64915;-59
2023/06/13 01:17:25;;;;;;;;;;;;;;;21.03;72.59;96443.33;624180;227;66846;-59
2023/06/13 01:19:53;;;;;;;;;;;;;;;21.03;72.61;96442.52;624767;227;66803;-59
2023/06/13 01:22:23;;;;;;;;;;;;;;;21.03;72.60;96443.33;624757;227;64937;-59
2023/06/13 01:25:02;;;;;;;;;;;;;;;21.03;72.65;96437.17;624676;227;67676;-59
2023/06/13 01:27:30;;;;;;;;;;;;;;;21.03;72.61;96432.64;624711;226;67009;-59
2023/06/13 01:29:59;;;;;;;;;;;;;;;21.03;72.62;96431.83;624851;227;64932;-59
2023/06/13 01:32:27;;;;;;;;;;;;;;;21.02;72.63;96440.93;624726;227;64887;-60
2023/06/13 01:34:55;;;;;;;;;;;;;;;21.03;72.63;96431.83;624796;227;67104;-59
2023/06/13 01:37:24;;;;;;;;;;;;;;;21.01;72.62;96432.13;624604;227;62945;-61
2023/06/13 01:39:52;;;;;;;;;;;;;;;21.02;72.61;96433.70;624813;227;64931;-61
2023/06/13 01:42:20;;;;;;;;;;;;;;;21.02;72.63;96431.03;624836;227;66724;-61
2023/06/13 01:44:48;;;;;;;;;;;;;;;21.02;72.63;96425.69;624775;227;62821;-61
2023/06/13 01:47:29;;;;;;;;;;;;;;;21.02;72.60;96428.36;624739;227;64610;-61
2023/06/13 01:50:01;;;;;;;;;;;;;;;21.01;72.63;96432.13;624792;227;65479;-62
2023/06/13 01:52:42;;;;;;;;;;;;;;;21.03;72.64;96432.64;624773;227;64986;-62
2023/06/13 01:55:12;;;;;;;;;;;;;;;21.02;72.64;96427.58;624690;226;67353;-61
2023/06/13 01:57:44;;;;;;;;;;;;;;;21.02;72.64;96431.03;624794;227;67009;-61
2023/06/13 02:00:13;;;;;;;;;;;;;;;21.02;72.65;96430.24;624797;227;65249;-61
2023/06/13 02:02:44;;;;;;;;;;;;;;;21.02;72.68;96424.90;624925;226;37942;-61
2023/06/13 02:05:12;;;;;;;;;;;;;;;21.01;72.68;96429.45;624813;227;66752;-61
2023/06/13 02:07:40;;;;;;;;;;;;;;;21.01;72.68;96417.98;624775;227;64832;-61
2023/06/13 02:10:08;;;;;;;;;;;;;;;21.02;72.66;96433.70;624762;227;67358;-61
2023/06/13 02:12:36;;;;;;;;;;;;;;;21.02;72.65;96424.90;624770;226;65331;-61
2023/06/13 02:15:04;;;;;;;;;;;;;;;21.02;72.65;96440.93;624771;227;65041;-61
2023/06/13 02:17:33;;;;;;;;;;;;;;;21.02;72.65;96435.59;624804;227;67228;-61
2023/06/13 02:20:00;;;;;;;;;;;;;;;21.01;72.64;96432.13;624762;227;64825;-61
2023/06/13 02:22:28;;;;;;;;;;;;;;;21.02;72.63;96431.03;624739;227;64960;-61
2023/06/13 02:24:55;;;;;;;;;;;;;;;21.01;72.65;96436.68;624825;227;67269;-61
2023/06/13 02:27:23;;;;;;;;;;;;;;;21.01;72.65;96429.45;624751;227;67093;-61
2023/06/13 02:29:51;;;;;;;;;;;;;;;21.01;72.65;96432.13;624807;227;63793;-61
2023/06/13 02:32:21;;;;;;;;;;;;;;;21.01;72.65;96437.47;624790;227;66734;-61
2023/06/13 02:34:50;;;;;;;;;;;;;;;21.02;72.65;96443.60;624755;226;47588;-61
2023/06/13 02:37:20;;;;;;;;;;;;;;;21.01;72.65;96442.02;624800;227;62741;-61
2023/06/13 02:39:47;;;;;;;;;;;;;;;21.01;72.65;96448.16;624825;227;65248;-61
2023/06/13 02:42:14;;;;;;;;;;;;;;;21.01;72.65;96450.83;624774;227;67279;-61
2023/06/13 02:44:42;;;;;;;;;;;;;;;21.02;72.63;96448.95;624779;227;64996;-61
2023/06/13 02:47:09;;;;;;;;;;;;;;;21.01;72.68;96453.50;624766;227;67192;-61
2023/06/13 02:49:37;;;;;;;;;;;;;;;21.01;72.67;96445.48;624728;227;67048;-61
2023/06/13 02:52:05;;;;;;;;;;;;;;;21.02;72.64;96455.08;624844;227;65199;-61
2023/06/13 02:54:32;;;;;;;;;;;;;;;21.01;72.64;96450.83;624764;227;67208;-61
2023/06/13 02:57:00;;;;;;;;;;;;;;;21.01;72.69;96458.84;624783;227;67666;-61
2023/06/13 02:59:28;;;;;;;;;;;;;;;21.00;72.66;96457.23;624823;227;63802;-61
2023/06/13 03:01:55;;;;;;;;;;;;;;;21.00;72.65;96451.89;624758;227;66979;-61
2023/06/13 03:04:24;;;;;;;;;;;;;;;21.01;72.67;96456.17;624829;227;64852;-61
2023/06/13 03:06:53;;;;;;;;;;;;;;;21.01;72.67;96464.18;624791;227;64861;-61
2023/06/13 03:09:21;;;;;;;;;;;;;;;21.01;72.64;96466.06;624804;227;67221;-61
2023/06/13 03:11:49;;;;;;;;;;;;;;;21.00;72.67;96465.24;624791;227;65694;-61
2023/06/13 03:14:16;;;;;;;;;;;;;;;21.00;72.69;96462.57;624758;226;65725;-61
2023/06/13 03:16:44;;;;;;;;;;;;;;;21.01;72.68;96469.53;624813;227;67381;-61
2023/06/13 03:19:11;;;;;;;;;;;;;;;21.01;72.69;96466.86;624830;227;66808;-61
2023/06/13 03:21:40;;;;;;;;;;;;;;;21.01;72.70;96472.20;624690;227;64235;-61
2023/06/13 03:24:08;;;;;;;;;;;;;;;21.01;72.69;96474.87;624745;227;67121;-61
2023/06/13 03:26:38;;;;;;;;;;;;;;;21.01;72.69;96480.21;624690;227;64838;-61
2023/06/13 03:29:07;;;;;;;;;;;;;;;21.01;72.70;96477.54;624806;227;65693;-61
2023/06/13 03:31:35;;;;;;;;;;;;;;;21.01;72.70;96476.75;624770;227;67270;-61
2023/06/13 03:34:03;;;;;;;;;;;;;;;21.01;72.71;96479.42;624711;227;65086;-61
2023/06/13 03:36:33;;;;;;;;;;;;;;;21.00;72.71;96483.95;624087;227;65023;-61
2023/06/13 03:39:00;;;;;;;;;;;;;;;21.00;72.71;96475.93;623762;227;65577;-61
2023/06/13 03:41:28;;;;;;;;;;;;;;;21.00;72.71;96475.14;624296;227;66840;-61
2023/06/13 03:43:56;;;;;;;;;;;;;;;21.00;72.70;96483.95;624211;227;63724;-61
2023/06/13 03:46:24;;;;;;;;;;;;;;;21.00;72.70;96486.61;624195;227;63936;-61
2023/06/13 03:48:53;;;;;;;;;;;;;;;21.00;72.71;96483.16;624209;227;67174;-61
2023/06/13 03:51:20;;;;;;;;;;;;;;;20.99;72.71;96479.69;624411;227;63065;-61
2023/06/13 03:53:48;;;;;;;;;;;;;;;21.00;72.74;96486.61;624836;227;67868;-60
2023/06/13 03:56:17;;;;;;;;;;;;;;;20.99;72.72;96479.69;624819;227;67626;-59
2023/06/13 03:58:45;;;;;;;;;;;;;;;20.99;72.71;96479.69;624820;227;64829;-60
2023/06/13 04:01:12;;;;;;;;;;;;;;;21.00;72.71;96486.61;624590;227;64437;-59
2023/06/13 04:03:41;;;;;;;;;;;;;;;21.00;72.71;96491.16;624801;227;64570;-59
2023/06/13 04:06:09;;;;;;;;;;;;;;;21.00;72.72;96489.28;624691;227;65418;-60
2023/06/13 04:08:38;;;;;;;;;;;;;;;21.00;72.72;96486.61;624807;227;67179;-59
2023/06/13 04:11:06;;;;;;;;;;;;;;;21.00;72.72;96480.48;624674;227;64949;-60
2023/06/13 04:13:33;;;;;;;;;;;;;;;21.00;72.72;96489.28;625362;226;66058;-60
2023/06/13 04:16:01;;;;;;;;;;;;;;;21.00;72.71;96485.83;625904;226;67200;-61
2023/06/13 04:18:29;;;;;;;;;;;;;;;20.98;72.71;96486.13;625925;226;67027;-61
2023/06/13 04:20:59;;;;;;;;;;;;;;;21.00;72.71;96493.84;625985;226;65435;-60
2023/06/13 04:23:27;;;;;;;;;;;;;;;20.98;72.72;96488.80;625914;226;67247;-60
2023/06/13 04:25:55;;;;;;;;;;;;;;;20.99;72.73;96495.72;625894;226;67454;-61
2023/06/13 04:28:24;;;;;;;;;;;;;;;20.99;72.73;96487.70;625925;226;65065;-60
2023/06/13 04:30:52;;;;;;;;;;;;;;;20.98;72.72;96494.14;625932;224;64497;-60
2023/06/13 04:33:21;;;;;;;;;;;;;;;20.99;72.72;96490.38;625851;226;66791;-61
2023/06/13 04:35:49;;;;;;;;;;;;;;;20.98;72.71;96494.14;625976;226;62955;-60
2023/06/13 04:38:22;;;;;;;;;;;;;;;20.99;72.74;96503.73;625901;226;67174;-60
2023/06/13 04:40:47;;;;;;;;;;;;;;;20.99;72.72;96497.59;625740;226;65354;-60
2023/06/13 04:43:18;;;;;;;;;;;;;;;20.99;72.74;96502.94;625920;226;62920;-60
2023/06/13 04:45:46;;;;;;;;;;;;;;;20.98;72.74;96504.83;625941;226;67218;-59
2023/06/13 04:48:14;;;;;;;;;;;;;;;20.98;72.74;96504.00;625965;226;64765;-58
2023/06/13 04:50:44;;;;;;;;;;;;;;;20.98;72.75;96504.83;625914;226;64929;-58
2023/06/13 04:53:16;;;;;;;;;;;;;;;20.99;72.76;96500.27;625896;226;67262;-59
2023/06/13 04:55:43;;;;;;;;;;;;;;;20.97;72.76;96503.21;621545;226;67000;-60
2023/06/13 04:58:11;;;;;;;;;;;;;;;20.98;72.75;96512.84;625910;226;65146;-61
2023/06/13 05:00:38;;;;;;;;;;;;;;;20.98;72.76;96514.69;625928;226;66937;-61
2023/06/13 05:03:07;;;;;;;;;;;;;;;20.98;72.76;96517.36;625896;226;64909;-61
2023/06/13 05:05:34;;;;;;;;;;;;;;;20.98;72.76;96514.69;625897;226;65403;-61
2023/06/13 05:08:02;;;;;;;;;;;;;;;20.98;72.78;96515.51;625807;226;67406;-61
2023/06/13 05:10:30;;;;;;;;;;;;;;;20.98;72.80;96515.51;625851;226;67021;-61
2023/06/13 05:12:57;;;;;;;;;;;;;;;20.98;72.77;96515.51;625429;226;64997;-61
2023/06/13 05:15:25;;;;;;;;;;;;;;;20.98;72.75;96517.36;624497;227;67280;-61
2023/06/13 05:17:54;;;;;;;;;;;;;;;20.98;72.78;96526.19;624760;227;66992;-61
2023/06/13 05:20:25;;;;;;;;;;;;;;;20.99;72.77;96524.31;624790;227;64878;-61
2023/06/13 05:22:52;;;;;;;;;;;;;;;20.97;72.76;96519.23;624741;226;67030;-61
2023/06/13 05:25:20;;;;;;;;;;;;;;;20.97;72.77;96527.25;624793;227;64868;-61
2023/06/13 05:27:48;;;;;;;;;;;;;;;20.97;72.79;96527.25;624776;227;65056;-60
2023/06/13 05:30:16;;;;;;;;;;;;;;;20.98;72.78;96530.72;624776;227;67270;-61
2023/06/13 05:32:44;;;;;;;;;;;;;;;20.99;72.77;96535.00;624760;227;67078;-61
2023/06/13 05:35:12;;;;;;;;;;;;;;;20.98;72.76;96533.39;624788;227;63864;-61
2023/06/13 05:37:39;;;;;;;;;;;;;;;20.98;72.77;96533.39;624600;227;64768;-61
2023/06/13 05:40:09;;;;;;;;;;;;;;;20.98;72.79;96536.06;624737;227;65809;-61
2023/06/13 05:42:37;;;;;;;;;;;;;;;20.97;72.78;96535.27;624675;227;62869;-61
2023/06/13 05:45:06;;;;;;;;;;;;;;;20.97;72.77;96535.27;624704;227;67207;-61
2023/06/13 05:47:36;;;;;;;;;;;;;;;20.98;72.78;96530.72;624777;226;66823;-62
2023/06/13 05:50:04;;;;;;;;;;;;;;;20.98;72.81;96536.06;624720;227;63055;-62
2023/06/13 05:52:34;;;;;;;;;;;;;;;20.97;72.79;96537.94;624781;227;67187;-62
2023/06/13 05:55:04;;;;;;;;;;;;;;;20.98;72.79;96533.39;624070;227;67350;-60
2023/06/13 05:57:38;;;;;;;;;;;;;;;20.97;72.82;96539.82;624706;227;65501;-60
2023/06/13 06:00:08;;;;;;;;;;;;;;;20.97;72.79;96540.61;617763;227;67304;-61
2023/06/13 06:02:37;;;;;;;;;;;;;;;20.97;72.83;96548.63;617532;228;48326;-61
2023/06/13 06:05:05;;;;;;;;;;;;;;;20.97;72.82;96542.48;617498;229;62986;-60
2023/06/13 06:07:32;;;;;;;;;;;;;;;20.97;72.82;96539.82;617462;229;64902;-60
2023/06/13 06:10:00;;;;;;;;;;;;;;;20.96;72.76;96538.23;617599;229;67031;-60
2023/06/13 06:12:27;;;;;;;;;;;;;;;20.95;72.92;96542.79;617391;229;62880;-61
2023/06/13 06:14:55;;;;;;;;;;;;;;;20.97;72.62;96539.82;618558;229;64711;-61
2023/06/13 06:17:22;;;;;;;;;;;;;;;20.97;72.74;96532.59;618263;229;65092;-60
2023/06/13 06:19:50;;;;;;;;;;;;;;;20.98;72.67;96538.73;618698;229;65066;-61
2023/06/13 06:22:19;;;;;;;;;;;;;;;20.98;72.63;96542.22;618578;229;67413;-61
2023/06/13 06:24:46;;;;;;;;;;;;;;;20.98;72.54;96531.53;618653;226;64964;-62
2023/06/13 06:27:14;;;;;;;;;;;;;;;21.00;72.49;96536.58;618738;229;63051;-60
2023/06/13 06:29:44;;;;;;;;;;;;;;;20.99;72.49;96533.12;618676;229;64858;-60
2023/06/13 06:32:12;;;;;;;;;;;;;;;21.01;72.48;96532.84;618689;229;65015;-59
2023/06/13 06:34:40;;;;;;;;;;;;;;;21.01;72.46;96535.52;618727;229;62913;-58
2023/06/13 06:37:07;;;;;;;;;;;;;;;21.02;72.43;96543.23;618655;229;67951;-60
2023/06/13 06:39:35;;;;;;;;;;;;;;;21.02;72.44;96532.55;618574;229;64962;-59
2023/06/13 06:42:03;;;;;;;;;;;;;;;21.02;72.44;96535.22;618464;229;62772;-59
2023/06/13 06:44:38;;;;;;;;;;;;;;;21.03;72.49;96536.83;618583;229;46580;-59
2023/06/13 06:47:06;;;;;;;;;;;;;;;21.02;72.44;96540.56;618656;229;67112;-59
2023/06/13 06:49:33;;;;;;;;;;;;;;;21.03;72.49;96539.50;618764;229;63009;-60
2023/06/13 06:52:00;;;;;;;;;;;;;;;21.04;72.49;96540.30;618727;229;65874;-59
2023/06/13 06:54:28;;;;;;;;;;;;;;;21.04;72.52;96537.62;618686;229;64813;-59
2023/06/13 06:56:56;;;;;;;;;;;;;;;21.03;72.51;96539.50;618764;229;65077;-59
2023/06/13 06:59:23;;;;;;;;;;;;;;;21.03;72.50;96526.15;618378;229;67298;-59
2023/06/13 07:01:51;;;;;;;;;;;;;;;21.04;72.55;96534.95;618530;229;64802;-60
2023/06/13 07:04:18;;;;;;;;;;;;;;;21.04;72.50;96538.41;618726;229;62964;-60
2023/06/13 07:06:46;;;;;;;;;;;;;;;21.05;72.50;96536.53;618725;229;64523;-60
2023/06/13 07:09:14;;;;;;;;;;;;;;;21.05;72.54;96529.31;618753;229;65129;-60
2023/06/13 07:11:41;;;;;;;;;;;;;;;21.05;72.57;96531.19;618741;229;65047;-60
2023/06/13 07:14:09;;;;;;;;;;;;;;;21.04;72.57;96525.05;617848;229;67266;-60
2023/06/13 07:16:36;;;;;;;;;;;;;;;21.05;72.54;96525.84;617616;229;66996;-60
2023/06/13 07:19:03;;;;;;;;;;;;;;;21.05;72.53;96523.97;617588;229;64908;-60
2023/06/13 07:21:31;;;;;;;;;;;;;;;21.06;72.50;96533.59;617046;229;65757;-60
2023/06/13 07:23:58;;;;;;;;;;;;;;;21.05;72.49;96521.30;617434;229;64859;-59
2023/06/13 07:26:26;;;;;;;;;;;;;;;21.06;72.50;96524.76;617666;229;62939;-60
2023/06/13 07:28:55;;;;;;;;;;;;;;;21.06;72.48;96522.91;617592;229;64620;-61
2023/06/13 07:31:22;;;;;;;;;;;;;;;21.06;72.47;96525.58;617653;229;67951;-61
2023/06/13 07:33:50;;;;;;;;;;;;;;;21.07;72.48;96523.70;617549;229;65100;-61
2023/06/13 07:36:19;;;;;;;;;;;;;;;21.05;72.48;96521.30;617561;229;67440;-61
2023/06/13 07:38:46;;;;;;;;;;;;;;;21.05;72.49;96510.61;614195;229;65934;-61
2023/06/13 07:41:14;;;;;;;;;;;;;;;21.06;72.50;96517.56;621627;227;62779;-61
2023/06/13 07:43:41;;;;;;;;;;;;;;;21.06;72.48;96525.58;624409;227;65681;-61
2023/06/13 07:46:09;;;;;;;;;;;;;;;21.08;72.47;96521.81;624765;227;67117;-61
2023/06/13 07:48:36;;;;;;;;;;;;;;;21.06;72.47;96525.58;624695;227;65113;-61
2023/06/13 07:51:05;;;;;;;;;;;;;;;21.07;72.44;96523.70;624799;227;66860;-61
2023/06/13 07:53:32;;;;;;;;;;;;;;;21.07;72.43;96523.70;624771;227;64689;-61
2023/06/13 07:56:00;;;;;;;;;;;;;;;21.08;72.42;96521.81;624618;227;62898;-61
2023/06/13 07:58:28;;;;;;;;;;;;;;;21.09;72.44;96520.73;624710;227;64560;-61
2023/06/13 08:00:55;;;;;;;;;;;;;;;21.09;72.19;96526.06;624463;227;66849;-61
2023/06/13 08:03:22;;;;;;;;;;;;;;;21.10;73.06;96525.01;624649;227;65124;-61
2023/06/13 08:05:50;;;;;;;;;;;;;;;21.08;73.13;96525.28;624535;227;64608;-61
2023/06/13 08:08:17;;;;;;;;;;;;;;;21.06;72.45;96525.58;624677;227;66714;-61
2023/06/13 08:10:45;;;;;;;;;;;;;;;21.06;72.28;96522.91;624705;227;65098;-61
2023/06/13 08:13:12;;;;;;;;;;;;;;;21.06;72.18;96516.74;624314;226;66882;-61
2023/06/13 08:15:40;;;;;;;;;;;;;;;21.06;72.04;96516.74;624668;227;66666;-61
2023/06/13 08:18:07;;;;;;;;;;;;;;;21.06;71.93;96517.56;624643;227;64886;-61
2023/06/13 08:20:36;;;;;;;;;;;;;;;21.07;71.84;96518.36;624715;227;64838;-62
2023/06/13 08:23:03;;;;;;;;;;;;;;;21.06;71.79;96512.22;624687;227;67352;-61
2023/06/13 08:25:31;;;;;;;;;;;;;;;21.06;71.75;96514.89;624678;227;65178;-61
2023/06/13 08:27:58;;;;;;;;;;;;;;;21.06;71.67;96517.56;624735;227;67223;-61
2023/06/13 08:30:26;;;;;;;;;;;;;;;21.06;71.60;96517.56;624753;227;66963;-61
2023/06/13 08:32:54;;;;;;;;;;;;;;;21.06;71.59;96517.56;624506;227;62820;-61
2023/06/13 08:35:22;;;;;;;;;;;;;;;21.07;72.28;96507.67;624654;227;67285;-61
2023/06/13 08:37:49;;;;;;;;;;;;;;;21.08;72.68;96508.45;624679;227;67058;-61
2023/06/13 08:40:19;;;;;;;;;;;;;;;21.07;73.47;96502.33;624584;227;65133;-61
2023/06/13 08:42:47;;;;;;;;;;;;;;;21.07;73.41;96502.33;624768;227;64660;-61
2023/06/13 08:45:15;;;;;;;;;;;;;;;21.06;72.63;96495.37;624708;227;65182;-61
2023/06/13 08:47:46;;;;;;;;;;;;;;;21.08;72.82;96503.91;624696;227;65056;-61
2023/06/13 08:50:12;;;;;;;;;;;;;;;21.07;71.92;96494.31;624620;226;67537;-61
2023/06/13 08:52:41;;;;;;;;;;;;;;;21.07;73.09;96494.31;624657;227;65619;-61
2023/06/13 08:55:10;;;;;;;;;;;;;;;21.08;73.69;96489.75;624727;227;62933;-62
2023/06/13 08:57:45;;;;;;;;;;;;;;;21.07;72.29;96496.98;624733;227;67137;-62
2023/06/13 09:00:15;;;;;;;;;;;;;;;21.06;72.02;96493.52;624517;226;67106;-61
2023/06/13 09:02:39;;;;;;;;;;;;;;;21.07;71.91;96496.98;624614;226;65078;-61
2023/06/13 09:05:07;;;;;;;;;;;;;;;21.08;72.09;96489.75;624760;227;65548;-61
2023/06/13 09:07:35;;;;;;;;;;;;;;;21.08;73.18;96482.53;624722;227;66816;-61
2023/06/13 09:10:03;;;;;;;;;;;;;;;21.08;72.35;96485.20;624819;227;65090;-61
2023/06/13 09:12:31;;;;;;;;;;;;;;;21.08;71.87;96477.19;624672;226;64564;-61
2023/06/13 09:14:59;;;;;;;;;;;;;;;21.10;71.88;96479.59;624677;227;64522;-61
2023/06/13 09:17:28;;;;;;;;;;;;;;;21.10;71.91;96476.92;624519;226;46518;-61
2023/06/13 09:19:56;;;;;;;;;;;;;;;21.10;72.00;96472.36;624716;227;66862;-61
2023/06/13 09:22:24;;;;;;;;;;;;;;;21.10;72.04;96468.91;624657;227;67005;-61
2023/06/13 09:24:52;;;;;;;;;;;;;;;21.11;72.07;96473.16;624651;227;64983;-61
2023/06/13 09:27:19;;;;;;;;;;;;;;;21.12;72.08;96469.42;624741;227;67013;-62
2023/06/13 09:29:49;;;;;;;;;;;;;;;21.11;72.09;96473.16;624710;227;63402;-61
2023/06/13 09:32:18;;;;;;;;;;;;;;;21.13;72.10;96473.67;624773;227;63124;-61
2023/06/13 09:34:45;;;;;;;;;;;;;;;21.12;72.08;96469.42;624727;227;64751;-61
2023/06/13 09:37:13;;;;;;;;;;;;;;;21.12;72.12;96472.09;624685;227;67093;-61
2023/06/13 09:39:57;;;;;;;;;;;;;;;21.13;72.19;96476.34;624730;227;64988;-59
2023/06/13 09:42:22;;;;;;;;;;;;;;;21.12;72.24;96474.77;624534;226;66871;-61
2023/06/13 09:44:52;;;;;;;;;;;;;;;21.12;72.32;96472.09;624718;227;64694;-61
2023/06/13 09:47:22;;;;;;;;;;;;;;;21.12;72.35;96472.09;624739;227;65052;-61
2023/06/13 09:49:57;;;;;;;;;;;;;;;21.12;72.34;96474.77;624634;227;66909;-61
2023/06/13 09:52:28;;;;;;;;;;;;;;;21.13;72.39;96471.00;624671;227;64674;-61
2023/06/13 09:54:57;;;;;;;;;;;;;;;21.12;72.46;96467.54;624727;227;65175;-61
2023/06/13 09:57:26;;;;;;;;;;;;;;;21.12;72.48;96469.42;624711;226;51444;-61
2023/06/13 09:59:54;;;;;;;;;;;;;;;21.12;72.49;96466.75;624723;227;66809;-61
2023/06/13 10:02:21;;;;;;;;;;;;;;;21.12;72.46;96472.09;624724;227;63227;-61
2023/06/13 10:04:55;;;;;;;;;;;;;;;21.13;72.48;96471.00;624643;227;64851;-60
2023/06/13 10:07:18;;;;;;;;;;;;;;;21.12;72.50;96467.54;624576;226;64712;-60
2023/06/13 10:09:46;;;;;;;;;;;;;;;21.12;72.49;96472.09;624718;227;65021;-60
2023/06/13 10:12:21;;;;;;;;;;;;;;;21.12;72.41;96472.88;624647;227;66819;-60
2023/06/13 10:14:51;;;;;;;;;;;;;;;21.13;72.51;96476.34;624783;227;66858;-60
2023/06/13 10:17:19;;;;;;;;;;;;;;;21.13;72.65;96471.00;624677;227;62982;-60
2023/06/13 10:19:48;;;;;;;;;;;;;;;21.12;72.67;96467.54;624657;227;66932;-60
2023/06/13 10:22:15;;;;;;;;;;;;;;;21.13;72.68;96465.66;624677;227;66727;-60
2023/06/13 10:24:44;;;;;;;;;;;;;;;21.13;72.72;96462.98;624691;227;62920;-60
2023/06/13 10:27:14;;;;;;;;;;;;;;;21.12;72.67;96474.77;624736;227;66971;-60
2023/06/13 10:29:46;;;;;;;;;;;;;;;21.12;72.65;96466.75;624817;227;66796;-60
2023/06/13 10:32:21;;;;;;;;;;;;;;;21.12;72.66;96462.20;623522;227;62897;-59
2023/06/13 10:35:03;;;;;;;;;;;;;;;21.12;72.63;96470.21;624728;227;66954;-59
2023/06/13 10:37:30;;;;;;;;;;;;;;;21.11;72.62;96471.27;624698;226;64567;-59
2023/06/13 10:40:08;;;;;;;;;;;;;;;21.13;72.62;96473.67;624579;227;65109;-59
2023/06/13 10:42:43;;;;;;;;;;;;;;;21.12;72.62;96472.09;624294;226;64760;-59
2023/06/13 10:45:19;;;;;;;;;;;;;;;21.13;72.10;96479.02;624744;226;64336;-59
2023/06/13 10:47:47;;;;;;;;;;;;;;;21.14;71.67;96486.73;624652;227;65377;-59
2023/06/13 10:50:16;;;;;;;;;;;;;;;21.14;71.52;96491.28;624715;227;66916;-61
2023/06/13 10:52:44;;;;;;;;;;;;;;;21.15;71.73;96508.93;624478;226;67075;-59
2023/06/13 10:55:13;;;;;;;;;;;;;;;21.18;71.59;96500.34;624566;227;65043;-59
2023/06/13 10:57:48;;;;;;;;;;;;;;;21.20;71.60;96490.96;624750;227;66919;-59
2023/06/13 11:00:30;;;;;;;;;;;;;;;21.20;71.88;96490.96;624544;226;66890;-59
2023/06/13 11:03:08;;;;;;;;;;;;;;;21.22;71.91;96494.13;624529;226;65068;-59
2023/06/13 11:05:40;;;;;;;;;;;;;;;21.22;71.84;96499.47;624726;227;66915;-59
2023/06/13 11:08:09;;;;;;;;;;;;;;;21.23;71.83;96510.98;624359;226;65407;-58
2023/06/13 11:10:36;;;;;;;;;;;;;;;21.24;71.57;96517.91;624270;226;65069;-59
2023/06/13 11:13:04;;;;;;;;;;;;;;;21.25;71.79;96519.48;618353;227;66632;-59
2023/06/13 11:15:31;;;;;;;;;;;;;;;21.23;71.95;96514.44;623379;227;66796;-59
2023/06/13 11:18:03;;;;;;;;;;;;;;;21.23;72.18;96521.66;619027;227;62979;-59
2023/06/13 11:20:31;;;;;;;;;;;;;;;21.20;72.30;96517.69;617017;229;65756;-59
2023/06/13 11:22:59;;;;;;;;;;;;;;;21.19;72.23;96521.41;617563;229;64685;-59
2023/06/13 11:25:26;;;;;;;;;;;;;;;21.20;72.18;96519.56;617568;229;62889;-60
2023/06/13 11:27:53;;;;;;;;;;;;;;;21.22;71.79;96522.73;617522;229;64682;-60
2023/06/13 11:30:21;;;;;;;;;;;;;;;21.22;72.02;96525.40;616988;229;66802;-59
2023/06/13 11:32:49;;;;;;;;;;;;;;;21.20;72.31;96517.69;616831;229;65809;-60
2023/06/13 11:35:17;;;;;;;;;;;;;;;21.20;72.40;96519.56;617446;229;64607;-59
2023/06/13 11:37:50;;;;;;;;;;;;;;;21.19;72.48;96516.08;617513;229;66854;-59
2023/06/13 11:40:22;;;;;;;;;;;;;;;21.19;72.54;96504.59;617617;229;62959;-60
2023/06/13 11:42:53;;;;;;;;;;;;;;;21.18;72.56;96497.67;616917;229;67014;-60
2023/06/13 11:45:23;;;;;;;;;;;;;;;21.18;72.56;96497.67;617616;229;64694;-61
2023/06/13 11:47:59;;;;;;;;;;;;;;;21.18;72.51;96505.69;617645;229;65012;-60
2023/06/13 11:50:27;;;;;;;;;;;;;;;21.18;72.48;96508.36;617534;229;66923;-59
2023/06/13 11:53:05;;;;;;;;;;;;;;;21.17;72.45;96512.91;617603;229;66830;-59
2023/06/13 11:55:33;;;;;;;;;;;;;;;21.17;72.45;96515.58;617524;229;63034;-59
2023/06/13 11:58:01;;;;;;;;;;;;;;;21.17;72.44;96520.11;617679;229;64748;-59
2023/06/13 12:00:28;;;;;;;;;;;;;;;21.18;72.49;96519.05;617643;229;66453;-60
2023/06/13 12:02:56;;;;;;;;;;;;;;;21.17;72.34;96515.58;617626;229;63031;-60
2023/06/13 12:05:23;;;;;;;;;;;;;;;21.17;72.22;96512.91;617600;229;66935;-59
2023/06/13 12:07:51;;;;;;;;;;;;;;;21.17;72.43;96510.23;617596;229;66838;-59
2023/06/13 12:10:18;;;;;;;;;;;;;;;21.17;72.60;96504.89;617661;229;65148;-59
2023/06/13 12:12:59;;;;;;;;;;;;;;;21.17;72.61;96502.22;617792;229;66675;-59
2023/06/13 12:15:27;;;;;;;;;;;;;;;21.17;72.58;96502.22;618782;229;66552;-59
2023/06/13 12:17:59;;;;;;;;;;;;;;;21.17;72.59;96501.41;618773;229;62964;-59
2023/06/13 12:20:27;;;;;;;;;;;;;;;21.16;72.54;96497.94;618640;229;66755;-61
2023/06/13 12:22:59;;;;;;;;;;;;;;;21.17;72.52;96504.08;618733;229;66802;-60
2023/06/13 12:25:30;;;;;;;;;;;;;;;21.17;72.51;96498.73;618786;229;65135;-60
2023/06/13 12:28:01;;;;;;;;;;;;;;;21.18;72.53;96495.00;618731;229;66705;-60
2023/06/13 12:30:35;;;;;;;;;;;;;;;21.17;72.53;96494.20;618652;229;64655;-59
2023/06/13 12:33:04;;;;;;;;;;;;;;;21.16;72.57;96489.92;618416;228;42873;-60
2023/06/13 12:35:31;;;;;;;;;;;;;;;21.16;72.54;96489.92;618708;229;67247;-60
2023/06/13 12:38:01;;;;;;;;;;;;;;;21.16;72.58;96491.80;618617;228;44635;-60
2023/06/13 12:40:32;;;;;;;;;;;;;;;21.17;72.54;96490.72;618652;229;65171;-59
2023/06/13 12:43:00;;;;;;;;;;;;;;;21.17;72.60;96490.72;618752;229;66997;-58
2023/06/13 12:45:31;;;;;;;;;;;;;;;21.16;72.59;96497.94;618755;229;64734;-58
2023/06/13 12:47:59;;;;;;;;;;;;;;;21.17;72.57;96509.42;618703;229;62987;-60
2023/06/13 12:50:29;;;;;;;;;;;;;;;21.16;72.58;96508.63;618689;229;66925;-59
2023/06/13 12:53:03;;;;;;;;;;;;;;;21.16;72.58;96515.85;618785;229;65486;-60
2023/06/13 12:55:32;;;;;;;;;;;;;;;21.17;72.59;96512.09;618681;229;64991;-60